US-0744 weather

CLOSED Fort Kent Municipal Airport
Fort Kent, Maine, United States

Public forecast

Using degrees Fahrenheit for public forecast. Weather courtesy of forecast.io.

METAR (pilot weather report)

Closest report is Northern Aroostook Regional Airport, 11.9 nm (22.0 km) ENE. Retrieved 2019/09/23 02:53 UTC (55 minutes ago):

KFVE 230253Z AUTO 22010G17KT 10SM BKN031 OVC039 22/17 A2969 RMK AO2 SLP047 T02220167 55014

TAF (pilot weather forecast)

Forecast is more than 12 hours old.

Closest forecast is Northern Aroostook Regional Airport, 11.9 nm (22.0 km) ENE. Retrieved 2019/09/22 00:22 UTC (1 day ago):

TAF KFVE 222320Z 2300/2324 22010G18KT P6SM VCSH BKN040 WS010/22030KT FM230400 22010KT P6SM VCSH OVC030 WS010/22035KT FM231100 26011KT P6SM -SHRA OVC030 FM231400 27006KT 3SM -SHRA OVC014 FM232100 00000KT P6SM VCSH OVC018